Time;durP1;ratioP1;P1;durP2;ratioP2;P2;SDS_P1;SDS_P2;PMS_P1;PMS_P2;Temp;Humidity;BMP_temperature;BMP_pressure;BME280_temperature;BME280_humidity;BME280_pressure;Samples;Min_cycle;Max_cycle;Signal;HPM_P1;HPM_P2
2024/04/11 00:01:10;;;;;;;;;;;16.50;34.30;18.00;100035.00;;;;5592471;25;2175;-39
2024/04/11 00:03:40;;;;;;;;;;;16.50;34.90;18.00;100037.00;;;;5589830;25;1948;-39
2024/04/11 00:06:08;;;;;;;;;;;16.40;35.10;18.00;100032.00;;;;5588909;25;2075;-39
2024/04/11 00:08:38;;;;;;;;;;;16.40;34.90;18.10;100033.00;;;;5595671;25;2371;-39
2024/04/11 00:11:05;;;;;;;;;;;16.40;34.70;18.10;100034.00;;;;5588218;25;2299;-39
2024/04/11 00:13:35;;;;;;;;;;;16.40;34.50;18.10;100027.00;;;;5589461;25;2352;-39
2024/04/11 00:16:05;;;;;;;;;;;16.50;34.40;18.10;100025.00;;;;5593815;25;2203;-39
2024/04/11 00:18:35;;;;;;;;;;;16.50;34.30;18.10;100028.00;;;;5595155;25;2203;-39
2024/04/11 00:21:03;;;;;;;;;;;16.50;34.20;18.10;100020.00;;;;5593441;25;2210;-38
2024/04/11 00:23:33;;;;;;;;;;;16.50;34.10;18.10;100012.00;;;;5590650;25;2221;-39
2024/04/11 00:26:00;;;;;;;;;;;16.50;33.90;18.10;100014.00;;;;5594699;25;2166;-39
2024/04/11 00:28:30;;;;;;;;;;;16.50;33.90;18.00;100012.00;;;;5594876;25;2347;-39
2024/04/11 00:30:57;;;;;;;;;;;16.50;34.40;18.00;100013.00;;;;5589060;25;3093;-38
2024/04/11 00:33:30;;;;;;;;;;;16.40;34.70;17.90;100012.00;;;;5589225;25;1966;-39
2024/04/11 00:35:59;;;;;;;;;;;16.40;35.00;18.00;100021.00;;;;5594860;25;2141;-39
2024/04/11 00:38:33;;;;;;;;;;;16.40;34.60;18.00;100024.00;;;;5595541;25;2097;-39
2024/04/11 00:41:00;;;;;;;;;;;16.40;34.50;18.00;100011.00;;;;5589839;25;2156;-38
2024/04/11 00:43:31;;;;;;;;;;;16.40;34.30;18.00;100018.00;;;;5588996;25;2392;-39
2024/04/11 00:45:58;;;;;;;;;;;16.40;34.20;18.00;100019.00;;;;5594702;25;2194;-40
2024/04/11 00:48:31;;;;;;;;;;;16.40;34.10;18.00;100018.00;;;;5588689;25;1990;-38
2024/04/11 00:51:00;;;;;;;;;;;16.50;34.00;18.00;100016.00;;;;5590324;25;2333;-38
2024/04/11 00:53:30;;;;;;;;;;;16.50;33.90;18.10;100013.00;;;;5595103;25;2193;-40
2024/04/11 00:55:57;;;;;;;;;;;16.50;33.90;18.00;100020.00;;;;5594565;25;2401;-39
2024/04/11 00:58:28;;;;;;;;;;;16.40;34.00;18.00;100022.00;;;;5594346;25;2062;-39
2024/04/11 01:00:55;;;;;;;;;;;16.40;34.50;17.90;100027.00;;;;5590028;25;1999;-38
2024/04/11 01:03:25;;;;;;;;;;;16.30;34.80;17.90;99996.00;;;;5589165;25;2319;-39
2024/04/11 01:05:56;;;;;;;;;;;16.30;35.10;17.80;100011.00;;;;5588761;25;2211;-39
2024/04/11 01:08:28;;;;;;;;;;;16.20;35.30;17.80;100017.00;;;;5594216;25;2323;-39
2024/04/11 01:10:56;;;;;;;;;;;16.20;35.60;17.80;100030.00;;;;5593085;25;2348;-39
2024/04/11 01:13:26;;;;;;;;;;;16.20;35.40;17.80;100023.00;;;;5588279;25;2227;-39
2024/04/11 01:15:54;;;;;;;;;;;16.30;35.20;17.80;100020.00;;;;5595954;25;1972;-39
2024/04/11 01:18:25;;;;;;;;;;;16.30;35.00;17.90;100016.00;;;;5598013;25;2402;-39
2024/04/11 01:20:52;;;;;;;;;;;16.30;34.80;17.80;100020.00;;;;5595688;25;2229;-39
2024/04/11 01:23:25;;;;;;;;;;;16.30;34.60;17.90;100013.00;;;;5598312;25;2190;-38
2024/04/11 01:25:53;;;;;;;;;;;16.30;34.40;17.90;100013.00;;;;5597806;25;1948;-39
2024/04/11 01:28:24;;;;;;;;;;;16.30;34.30;17.90;100013.00;;;;5597975;25;2173;-39
2024/04/11 01:30:52;;;;;;;;;;;16.40;34.20;17.90;100000.00;;;;5594194;25;3215;-39
2024/04/11 01:33:23;;;;;;;;;;;16.40;34.30;17.80;100016.00;;;;5594081;25;2250;-39
2024/04/11 01:35:50;;;;;;;;;;;16.30;34.70;17.80;100019.00;;;;5591872;25;2159;-39
2024/04/11 01:38:20;;;;;;;;;;;16.20;35.00;17.80;100021.00;;;;5593633;25;2180;-40
2024/04/11 01:40:50;;;;;;;;;;;16.20;35.00;17.80;100017.00;;;;5595658;25;2240;-39
2024/04/11 01:43:20;;;;;;;;;;;16.20;34.70;17.90;100031.00;;;;5588972;25;1974;-38
2024/04/11 01:45:48;;;;;;;;;;;16.30;34.60;17.90;100022.00;;;;5593419;25;2240;-38
2024/04/11 01:48:17;;;;;;;;;;;16.30;34.50;17.90;100029.00;;;;5596166;25;2307;-39
2024/04/11 01:50:48;;;;;;;;;;;16.30;34.40;17.90;100032.00;;;;5597201;25;2356;-39
2024/04/11 01:53:18;;;;;;;;;;;16.30;34.20;17.90;100028.00;;;;5597358;25;2133;-40
2024/04/11 01:55:47;;;;;;;;;;;16.30;34.00;17.90;100025.00;;;;5597446;25;1961;-39
2024/04/11 01:58:21;;;;;;;;;;;16.30;34.00;17.90;100026.00;;;;5587947;25;2277;-39
2024/04/11 02:00:48;;;;;;;;;;;16.40;33.90;17.90;100026.00;;;;5588644;25;2252;-38
2024/04/11 02:03:24;;;;;;;;;;;16.30;34.20;17.80;100028.00;;;;5598040;25;2062;-39
2024/04/11 02:05:51;;;;;;;;;;;16.20;34.60;17.80;100025.00;;;;5589694;25;2174;-39
2024/04/11 02:08:22;;;;;;;;;;;16.20;34.80;17.80;100020.00;;;;5592180;25;2357;-39
2024/04/11 02:10:49;;;;;;;;;;;16.20;34.70;17.80;100022.00;;;;5587721;25;2175;-40
2024/04/11 02:13:22;;;;;;;;;;;16.20;34.50;17.80;100016.00;;;;5593384;25;2294;-39
2024/04/11 02:15:49;;;;;;;;;;;16.20;34.30;17.80;100010.00;;;;5584372;25;2307;-39
2024/04/11 02:18:19;;;;;;;;;;;16.30;34.40;17.80;100013.00;;;;5588845;25;2209;-39
2024/04/11 02:20:47;;;;;;;;;;;16.30;34.20;17.90;100013.00;;;;5592344;25;2185;-39
2024/04/11 02:23:18;;;;;;;;;;;16.30;34.00;17.90;100016.00;;;;5592333;25;2226;-39
2024/04/11 02:25:51;;;;;;;;;;;16.30;34.00;17.90;100028.00;;;;5596842;25;2417;-38
2024/04/11 02:28:21;;;;;;;;;;;16.30;33.80;17.80;100030.00;;;;5590882;25;2065;-39
2024/04/11 02:30:52;;;;;;;;;;;16.30;34.00;17.80;100024.00;;;;5585992;25;2280;-41
2024/04/11 02:33:21;;;;;;;;;;;16.20;34.30;17.80;100021.00;;;;5594186;25;2240;-39
2024/04/11 02:35:52;;;;;;;;;;;16.20;34.60;17.70;100028.00;;;;5587909;25;2200;-39
2024/04/11 02:38:20;;;;;;;;;;;16.10;34.60;17.80;100027.00;;;;5584916;25;2080;-39
2024/04/11 02:40:51;;;;;;;;;;;16.20;34.50;17.80;100037.00;;;;5588002;25;2168;-38
2024/04/11 02:43:21;;;;;;;;;;;16.20;34.30;17.80;100041.00;;;;5588958;25;3071;-39
2024/04/11 02:45:53;;;;;;;;;;;16.20;34.20;17.80;100046.00;;;;5584485;25;2004;-39
2024/04/11 02:48:20;;;;;;;;;;;16.20;34.10;17.80;100046.00;;;;5589509;25;2198;-39
2024/04/11 02:50:51;;;;;;;;;;;16.20;33.90;17.80;100042.00;;;;5592329;25;2322;-39
2024/04/11 02:53:18;;;;;;;;;;;16.20;33.80;17.90;100042.00;;;;5585243;25;2401;-39
2024/04/11 02:55:49;;;;;;;;;;;16.20;33.60;17.90;100033.00;;;;5581871;25;2191;-39
2024/04/11 02:58:16;;;;;;;;;;;16.20;33.60;17.80;100038.00;;;;5590778;25;2003;-39
2024/04/11 03:00:52;;;;;;;;;;;16.20;34.00;17.70;100041.00;;;;5590523;25;2325;-39
2024/04/11 03:03:20;;;;;;;;;;;16.20;34.40;17.70;100038.00;;;;5585221;25;2166;-38
2024/04/11 03:05:50;;;;;;;;;;;16.10;34.70;17.60;100033.00;;;;5588068;25;2394;-39
2024/04/11 03:08:19;;;;;;;;;;;16.00;35.00;17.60;100039.00;;;;5584271;25;1996;-39
2024/04/11 03:10:49;;;;;;;;;;;16.00;35.30;17.60;100034.00;;;;5584381;25;2029;-38
2024/04/11 03:13:17;;;;;;;;;;;16.00;35.50;17.60;100042.00;;;;5586375;25;2465;-39
2024/04/11 03:15:58;;;;;;;;;;;16.00;35.20;17.60;100033.00;;;;5584113;25;2385;-37
2024/04/11 03:18:25;;;;;;;;;;;16.00;34.90;17.70;100047.00;;;;5584661;25;2198;-39
2024/04/11 03:20:55;;;;;;;;;;;16.10;34.80;17.70;100046.00;;;;5590371;25;1972;-38
2024/04/11 03:23:24;;;;;;;;;;;16.10;34.60;17.60;100041.00;;;;5592761;25;3069;-38
2024/04/11 03:25:55;;;;;;;;;;;16.10;34.40;17.60;100049.00;;;;5589327;25;2114;-39
2024/04/11 03:28:22;;;;;;;;;;;16.10;34.20;17.70;100050.00;;;;5596013;25;2361;-39
2024/04/11 03:31:00;;;;;;;;;;;16.10;34.20;17.70;100046.00;;;;5588514;25;3078;-38
2024/04/11 03:33:28;;;;;;;;;;;16.20;34.00;17.70;100048.00;;;;5586319;25;2191;-39
2024/04/11 03:35:58;;;;;;;;;;;16.10;34.20;17.60;100058.00;;;;5586953;25;2331;-39
2024/04/11 03:38:26;;;;;;;;;;;16.10;34.70;17.60;100045.00;;;;5591988;25;1995;-39
2024/04/11 03:40:59;;;;;;;;;;;16.00;34.90;17.60;100057.00;;;;5587702;25;2946;-39
2024/04/11 03:43:31;;;;;;;;;;;16.00;34.80;17.60;100056.00;;;;5595771;25;2189;-39
2024/04/11 03:46:16;;;;;;;;;;;16.00;34.60;17.60;100056.00;;;;5595513;25;2111;-41
2024/04/11 03:48:47;;;;;;;;;;;16.10;34.50;17.70;100061.00;;;;5593014;25;2323;-40
2024/04/11 03:51:15;;;;;;;;;;;16.10;34.40;17.70;100067.00;;;;5594699;25;2366;-39
2024/04/11 03:53:45;;;;;;;;;;;16.10;34.10;17.70;100065.00;;;;5590103;25;1859;-39
2024/04/11 03:56:14;;;;;;;;;;;16.10;34.10;17.70;100063.00;;;;5595506;25;2253;-39
2024/04/11 03:58:45;;;;;;;;;;;16.10;33.90;17.70;100064.00;;;;5595411;25;2161;-38
2024/04/11 04:01:16;;;;;;;;;;;16.10;33.80;17.70;100074.00;;;;5591098;25;2227;-38
2024/04/11 04:03:46;;;;;;;;;;;16.10;33.90;17.60;100073.00;;;;5592799;25;2068;-40
2024/04/11 04:06:14;;;;;;;;;;;16.10;34.40;17.60;100069.00;;;;5595609;25;2182;-39
2024/04/11 04:08:45;;;;;;;;;;;16.00;34.70;17.60;100065.00;;;;5590971;25;2344;-38
2024/04/11 04:11:13;;;;;;;;;;;16.00;34.70;17.60;100068.00;;;;5594068;25;1999;-39
2024/04/11 04:13:43;;;;;;;;;;;16.00;34.50;17.60;100069.00;;;;5590200;25;2440;-39
2024/04/11 04:16:11;;;;;;;;;;;16.00;34.40;17.60;100076.00;;;;5595127;25;3198;-39
2024/04/11 04:18:46;;;;;;;;;;;16.00;34.20;17.60;100084.00;;;;5595872;25;2248;-39
2024/04/11 04:21:13;;;;;;;;;;;16.10;34.10;17.60;100087.00;;;;5591054;25;2080;-38
2024/04/11 04:23:44;;;;;;;;;;;16.10;34.00;17.60;100081.00;;;;5592794;25;2366;-39
2024/04/11 04:26:14;;;;;;;;;;;16.10;33.90;17.60;100086.00;;;;5589879;25;2154;-39
2024/04/11 04:28:44;;;;;;;;;;;16.10;33.70;17.70;100081.00;;;;5592360;25;2136;-39
2024/04/11 04:31:13;;;;;;;;;;;16.10;33.70;17.60;100087.00;;;;5594820;25;2233;-40
2024/04/11 04:33:48;;;;;;;;;;;16.10;34.00;17.60;100093.00;;;;5575150;25;2232;-39
2024/04/11 04:36:18;;;;;;;;;;;16.00;34.40;17.50;100093.00;;;;5518029;25;2294;-39
2024/04/11 04:38:49;;;;;;;;;;;15.90;34.60;17.50;100090.00;;;;5519333;25;2307;-39
2024/04/11 04:41:17;;;;;;;;;;;16.00;34.60;17.60;100095.00;;;;5513109;25;2916;-39
2024/04/11 04:43:52;;;;;;;;;;;16.00;34.30;17.60;100104.00;;;;5517032;25;2386;-38
2024/04/11 04:46:20;;;;;;;;;;;16.00;34.20;17.60;100100.00;;;;5516590;25;2367;-39
2024/04/11 04:48:52;;;;;;;;;;;16.00;34.00;17.50;100096.00;;;;5517215;25;2311;-39
2024/04/11 04:51:20;;;;;;;;;;;16.00;33.90;17.60;100108.00;;;;5517690;25;1843;-39
2024/04/11 04:53:51;;;;;;;;;;;16.00;33.80;17.60;100097.00;;;;5522667;25;2151;-39
2024/04/11 04:56:22;;;;;;;;;;;16.00;33.80;17.60;100110.00;;;;5516021;25;1918;-39
2024/04/11 04:58:53;;;;;;;;;;;16.10;33.70;17.60;100108.00;;;;5514387;25;2218;-41
2024/04/11 05:01:21;;;;;;;;;;;16.00;34.00;17.50;100108.00;;;;5517340;25;2166;-39
2024/04/11 05:03:55;;;;;;;;;;;16.00;34.20;17.40;100120.00;;;;5522628;25;2174;-39
2024/04/11 05:06:23;;;;;;;;;;;15.90;34.50;17.40;100122.00;;;;5520913;25;2332;-40
2024/04/11 05:08:54;;;;;;;;;;;15.80;34.70;17.40;100136.00;;;;5520656;25;2200;-39
2024/04/11 05:11:22;;;;;;;;;;;15.80;35.10;17.40;100114.00;;;;5517321;25;2259;-39
2024/04/11 05:13:53;;;;;;;;;;;15.80;35.30;17.40;100127.00;;;;5522804;25;2378;-39
2024/04/11 05:16:20;;;;;;;;;;;15.80;35.30;17.40;100127.00;;;;5520716;25;2410;-39
2024/04/11 05:18:54;;;;;;;;;;;15.80;35.00;17.40;100129.00;;;;5520199;25;1971;-40
2024/04/11 05:21:24;;;;;;;;;;;15.80;34.80;17.40;100137.00;;;;5519061;25;2207;-40
2024/04/11 05:23:55;;;;;;;;;;;15.90;34.60;17.40;100133.00;;;;5520972;25;2313;-39
2024/04/11 05:26:23;;;;;;;;;;;15.90;34.40;17.50;100124.00;;;;5521512;25;2313;-40
2024/04/11 05:28:57;;;;;;;;;;;16.00;34.30;17.50;100135.00;;;;5521776;25;2199;-39
2024/04/11 05:31:25;;;;;;;;;;;16.00;34.20;17.50;100126.00;;;;5521636;25;2164;-39
2024/04/11 05:34:06;;;;;;;;;;;16.00;34.00;17.50;100132.00;;;;5544237;25;2438;-40
2024/04/11 05:36:39;;;;;;;;;;;16.00;34.00;17.50;100120.00;;;;5597566;25;2170;-39
2024/04/11 05:39:14;;;;;;;;;;;15.90;34.40;17.40;100125.00;;;;5596773;25;2396;-39
2024/04/11 05:41:46;;;;;;;;;;;15.90;34.60;17.40;100131.00;;;;5596640;25;2315;-40
2024/04/11 05:44:14;;;;;;;;;;;15.80;34.60;17.50;100126.00;;;;5595902;25;3264;-39
2024/04/11 05:46:45;;;;;;;;;;;15.90;34.50;17.50;100127.00;;;;5597356;25;1610;-40
2024/04/11 05:49:17;;;;;;;;;;;16.00;34.40;17.60;100131.00;;;;5597107;25;2333;-39
2024/04/11 05:51:47;;;;;;;;;;;16.00;34.20;17.60;100126.00;;;;5593345;25;2173;-39
2024/04/11 05:54:16;;;;;;;;;;;16.10;34.10;17.60;100128.00;;;;5594545;25;2424;-40
2024/04/11 05:56:50;;;;;;;;;;;16.10;34.00;17.70;100128.00;;;;5597258;25;2250;-40
2024/04/11 05:59:19;;;;;;;;;;;16.20;33.90;17.70;100132.00;;;;5593155;25;1977;-41
2024/04/11 06:01:50;;;;;;;;;;;16.20;33.70;17.70;100122.00;;;;5592811;25;2318;-40
2024/04/11 06:04:25;;;;;;;;;;;16.30;34.20;17.80;100128.00;;;;5591273;25;1984;-40
2024/04/11 06:06:53;;;;;;;;;;;16.30;33.90;17.80;100135.00;;;;5596603;25;2082;-39
2024/04/11 06:09:23;;;;;;;;;;;16.30;34.40;17.80;100127.00;;;;5597138;25;1605;-39
2024/04/11 06:11:53;;;;;;;;;;;16.30;34.90;17.90;100139.00;;;;5589894;25;2296;-40
2024/04/11 06:14:24;;;;;;;;;;;16.30;34.30;17.90;100137.00;;;;5593872;25;2174;-41
2024/04/11 06:16:51;;;;;;;;;;;16.40;34.20;18.00;100145.00;;;;5594803;25;2271;-40
2024/04/11 06:19:25;;;;;;;;;;;16.50;34.00;18.00;100144.00;;;;5592500;25;1985;-39
2024/04/11 06:21:53;;;;;;;;;;;16.50;33.80;18.10;100147.00;;;;5595095;25;2194;-39
2024/04/11 06:24:24;;;;;;;;;;;16.60;33.80;18.10;100151.00;;;;5596796;25;2165;-40
2024/04/11 06:26:52;;;;;;;;;;;16.70;33.70;18.10;100154.00;;;;5596383;25;2444;-39
2024/04/11 06:29:24;;;;;;;;;;;16.70;33.50;18.20;100165.00;;;;5596775;25;2120;-39
2024/04/11 06:31:51;;;;;;;;;;;16.80;33.50;18.20;100161.00;;;;5596114;25;1617;-40
2024/04/11 06:34:24;;;;;;;;;;;16.80;33.70;18.40;100161.00;;;;5592532;25;2059;-39
2024/04/11 06:36:51;;;;;;;;;;;16.80;34.40;18.40;100151.00;;;;5596059;25;1982;-41
2024/04/11 06:39:21;;;;;;;;;;;16.80;34.70;18.40;100167.00;;;;5594022;25;5207;-41
2024/04/11 06:41:49;;;;;;;;;;;16.90;34.70;18.50;100164.00;;;;5594379;25;2101;-39
2024/04/11 06:44:19;;;;;;;;;;;16.90;33.90;18.50;100157.00;;;;5594469;25;2298;-40
2024/04/11 06:46:49;;;;;;;;;;;17.00;33.80;18.60;100153.00;;;;5593555;25;2147;-39
2024/04/11 06:49:19;;;;;;;;;;;17.00;33.60;18.60;100160.00;;;;5595511;25;2195;-40
2024/04/11 06:51:49;;;;;;;;;;;17.10;33.60;18.60;100159.00;;;;5593148;25;1976;-39
2024/04/11 06:54:19;;;;;;;;;;;17.10;33.50;18.70;100154.00;;;;5595828;25;2314;-39
2024/04/11 06:56:49;;;;;;;;;;;17.10;33.40;18.70;100156.00;;;;5594069;25;2416;-39
2024/04/11 06:59:20;;;;;;;;;;;17.20;33.30;18.70;100167.00;;;;5595296;25;2218;-40
2024/04/11 07:01:48;;;;;;;;;;;17.20;33.30;18.80;100164.00;;;;5587756;25;1856;-39
2024/04/11 07:04:18;;;;;;;;;;;17.20;34.10;18.80;100163.00;;;;5595063;25;2245;-39
2024/04/11 07:06:46;;;;;;;;;;;17.20;34.40;18.90;100160.00;;;;5595239;25;2036;-39
2024/04/11 07:09:18;;;;;;;;;;;17.20;34.60;18.80;100167.00;;;;5594847;25;2353;-38
2024/04/11 07:11:48;;;;;;;;;;;17.20;34.80;18.80;100166.00;;;;5593144;25;2431;-38
2024/04/11 07:14:23;;;;;;;;;;;17.20;34.90;18.80;100170.00;;;;5595454;25;2317;-39
2024/04/11 07:16:56;;;;;;;;;;;17.30;34.50;18.80;100159.00;;;;5595528;25;2390;-40
2024/04/11 07:19:27;;;;;;;;;;;17.30;34.10;18.90;100148.00;;;;5593788;25;1446;-39
2024/04/11 07:21:54;;;;;;;;;;;17.40;34.70;18.90;100156.00;;;;5594621;25;2131;-40
2024/04/11 07:24:27;;;;;;;;;;;17.40;33.80;19.00;100148.00;;;;5596291;25;2225;-40
2024/04/11 07:26:56;;;;;;;;;;;17.40;33.70;19.00;100151.00;;;;5595650;25;2178;-40
2024/04/11 07:29:26;;;;;;;;;;;17.50;33.70;19.00;100147.00;;;;5594625;25;2169;-39
2024/04/11 07:31:55;;;;;;;;;;;17.50;33.50;19.00;100157.00;;;;5594588;25;2081;-40
2024/04/11 07:34:28;;;;;;;;;;;17.50;33.40;19.10;100160.00;;;;5596203;25;2374;-39
2024/04/11 07:36:56;;;;;;;;;;;17.50;33.30;19.20;100157.00;;;;5594928;25;2335;-39
2024/04/11 07:39:29;;;;;;;;;;;17.60;34.40;19.20;100162.00;;;;5595522;25;1606;-39
2024/04/11 07:42:00;;;;;;;;;;;17.50;34.70;19.20;100157.00;;;;5590905;25;2373;-38
2024/04/11 07:44:31;;;;;;;;;;;17.50;34.60;19.20;100167.00;;;;5593840;25;1847;-38
2024/04/11 07:47:05;;;;;;;;;;;17.50;34.00;19.20;100160.00;;;;5593294;25;2202;-39
2024/04/11 07:49:48;;;;;;;;;;;17.50;33.90;19.10;100176.00;;;;5594815;25;1619;-39
2024/04/11 07:52:16;;;;;;;;;;;17.50;33.80;19.10;100165.00;;;;5594957;25;2330;-39
2024/04/11 07:54:53;;;;;;;;;;;17.60;33.70;19.20;100168.00;;;;5595405;25;2416;-38
2024/04/11 07:57:21;;;;;;;;;;;17.60;33.60;19.20;100172.00;;;;5590067;25;2349;-39
2024/04/11 07:59:55;;;;;;;;;;;17.60;33.50;19.20;100163.00;;;;5593038;25;2367;-38
2024/04/11 08:02:23;;;;;;;;;;;17.60;33.50;19.20;100160.00;;;;5591200;25;2347;-38
2024/04/11 08:04:53;;;;;;;;;;;17.70;33.40;19.20;100163.00;;;;5594573;25;2063;-38
2024/04/11 08:07:20;;;;;;;;;;;17.60;34.40;19.30;100171.00;;;;5590113;25;2168;-39
2024/04/11 08:09:55;;;;;;;;;;;17.60;34.80;19.30;100175.00;;;;5590630;25;2995;-38
2024/04/11 08:12:23;;;;;;;;;;;17.60;34.80;19.20;100172.00;;;;5591829;25;2369;-39
2024/04/11 08:14:53;;;;;;;;;;;17.60;34.20;19.20;100166.00;;;;5591998;25;1999;-39
2024/04/11 08:17:21;;;;;;;;;;;17.60;34.10;19.20;100176.00;;;;5590378;25;2333;-39
2024/04/11 08:19:51;;;;;;;;;;;17.60;33.90;19.20;100163.00;;;;5592296;25;2297;-39
2024/04/11 08:22:25;;;;;;;;;;;17.60;33.80;19.20;100157.00;;;;5594836;25;2223;-39
2024/04/11 08:24:58;;;;;;;;;;;17.70;33.80;19.20;100160.00;;;;5592842;25;2307;-39
2024/04/11 08:27:25;;;;;;;;;;;17.70;33.70;19.20;100170.00;;;;5592453;25;2283;-39
2024/04/11 08:29:55;;;;;;;;;;;17.70;33.60;19.20;100168.00;;;;5591774;25;2203;-39
2024/04/11 08:32:23;;;;;;;;;;;17.70;33.50;19.30;100169.00;;;;5594858;25;2237;-39
2024/04/11 08:34:53;;;;;;;;;;;17.70;35.30;19.30;100155.00;;;;5592787;25;2558;-39
2024/04/11 08:37:22;;;;;;;;;;;17.70;35.00;19.30;100172.00;;;;5590650;25;1495;-39
2024/04/11 08:39:52;;;;;;;;;;;17.60;35.30;19.30;100166.00;;;;5584720;25;2564;-39
2024/04/11 08:42:22;;;;;;;;;;;17.60;34.40;19.30;100168.00;;;;5590939;25;2179;-39
2024/04/11 08:44:57;;;;;;;;;;;17.70;34.30;19.30;100164.00;;;;5592825;25;2291;-38
2024/04/11 08:47:25;;;;;;;;;;;17.70;34.10;19.30;100160.00;;;;5591894;25;2123;-38
2024/04/11 08:49:55;;;;;;;;;;;17.70;34.00;19.30;100165.00;;;;5589429;25;2441;-39
2024/04/11 08:52:23;;;;;;;;;;;17.70;33.90;19.30;100170.00;;;;5592080;25;1476;-39
2024/04/11 08:54:55;;;;;;;;;;;17.70;33.70;19.30;100166.00;;;;5593530;25;2176;-39
2024/04/11 08:57:27;;;;;;;;;;;17.70;33.70;19.40;100177.00;;;;5590897;25;2328;-38
2024/04/11 08:59:58;;;;;;;;;;;17.80;33.70;19.40;100173.00;;;;5591499;25;2304;-39
2024/04/11 09:02:25;;;;;;;;;;;17.70;33.70;19.40;100174.00;;;;5591595;25;2222;-38
2024/04/11 09:04:57;;;;;;;;;;;17.70;34.50;19.40;100175.00;;;;5593071;25;2329;-38
2024/04/11 09:07:37;;;;;;;;;;;17.70;35.00;19.40;100167.00;;;;5594262;25;2207;-39
2024/04/11 09:10:09;;;;;;;;;;;17.60;35.40;19.40;100179.00;;;;5592146;25;1460;-38
2024/04/11 09:12:39;;;;;;;;;;;17.60;35.60;19.30;100167.00;;;;5594507;25;1941;-38
2024/04/11 09:15:10;;;;;;;;;;;17.60;35.70;19.30;100169.00;;;;5592363;25;2141;-38
2024/04/11 09:17:38;;;;;;;;;;;17.60;34.90;19.30;100172.00;;;;5593846;25;2218;-39
2024/04/11 09:20:12;;;;;;;;;;;17.60;34.70;19.30;100171.00;;;;5590962;25;2300;-38
2024/04/11 09:22:50;;;;;;;;;;;17.60;34.60;19.30;100173.00;;;;5591940;25;2274;-38
2024/04/11 09:25:26;;;;;;;;;;;17.60;34.40;19.30;100169.00;;;;5590903;25;2260;-38
2024/04/11 09:27:58;;;;;;;;;;;17.70;34.30;19.30;100176.00;;;;5592112;25;2355;-38
2024/04/11 09:30:32;;;;;;;;;;;17.70;34.20;19.30;100185.00;;;;5593528;25;2332;-38
2024/04/11 09:33:04;;;;;;;;;;;17.70;34.00;19.30;100181.00;;;;5596464;25;2167;-38
2024/04/11 09:35:40;;;;;;;;;;;17.70;34.00;19.40;100188.00;;;;5594239;25;1682;-38
2024/04/11 09:38:12;;;;;;;;;;;17.70;34.60;19.40;100183.00;;;;5593986;25;1610;-38
2024/04/11 09:40:43;;;;;;;;;;;17.70;35.00;19.40;100187.00;;;;5592273;25;2097;-38
2024/04/11 09:43:15;;;;;;;;;;;17.70;35.50;19.40;100188.00;;;;5598388;25;2042;-38
2024/04/11 09:45:50;;;;;;;;;;;17.60;34.80;19.40;100189.00;;;;5597824;25;1841;-38
2024/04/11 09:48:21;;;;;;;;;;;17.60;34.60;19.30;100191.00;;;;5592354;25;2329;-38
2024/04/11 09:50:52;;;;;;;;;;;17.70;34.50;19.30;100187.00;;;;5593663;25;2289;-36
2024/04/11 09:53:26;;;;;;;;;;;17.70;34.40;19.40;100191.00;;;;5596663;25;2032;-38
2024/04/11 09:55:56;;;;;;;;;;;17.70;34.30;19.40;100192.00;;;;5590421;25;1972;-38
2024/04/11 09:58:28;;;;;;;;;;;17.70;34.10;19.40;100184.00;;;;5598048;25;2389;-38
2024/04/11 10:01:09;;;;;;;;;;;17.70;34.00;19.40;100186.00;;;;5598436;25;2429;-38
2024/04/11 10:03:39;;;;;;;;;;;17.70;34.00;19.40;100189.00;;;;5598184;25;2213;-38
2024/04/11 10:06:17;;;;;;;;;;;17.70;34.70;19.40;100184.00;;;;5586272;25;2212;-38
2024/04/11 10:08:45;;;;;;;;;;;17.70;34.80;19.40;100191.00;;;;5596239;25;2179;-38
2024/04/11 10:11:17;;;;;;;;;;;17.70;35.10;19.40;100183.00;;;;5581549;25;1570;-37
2024/04/11 10:13:49;;;;;;;;;;;17.70;34.80;19.40;100192.00;;;;5587829;25;2304;-37
2024/04/11 10:16:28;;;;;;;;;;;17.70;34.60;19.40;100185.00;;;;5596096;25;2192;-38
2024/04/11 10:19:04;;;;;;;;;;;17.70;34.50;19.40;100187.00;;;;5594280;25;2017;-37
2024/04/11 10:21:38;;;;;;;;;;;17.70;34.30;19.40;100177.00;;;;5595922;25;1892;-37
2024/04/11 10:24:23;;;;;;;;;;;17.70;34.20;19.40;100177.00;;;;5592277;25;2397;-38
2024/04/11 10:26:54;;;;;;;;;;;17.70;34.00;19.40;100173.00;;;;5589018;25;2186;-37
2024/04/11 10:29:26;;;;;;;;;;;17.70;34.00;19.40;100175.00;;;;5588680;25;2338;-38
2024/04/11 10:31:59;;;;;;;;;;;17.80;34.00;19.50;100178.00;;;;5594351;25;3019;-37
2024/04/11 10:34:34;;;;;;;;;;;17.80;34.50;19.50;100181.00;;;;5596437;25;2007;-37
2024/04/11 10:37:07;;;;;;;;;;;17.80;34.80;19.60;100186.00;;;;5595954;25;2180;-38
2024/04/11 10:39:35;;;;;;;;;;;17.80;35.10;19.50;100186.00;;;;5595690;25;1962;-37
2024/04/11 10:42:07;;;;;;;;;;;17.70;34.60;19.50;100185.00;;;;5587005;25;2171;-38
2024/04/11 10:44:37;;;;;;;;;;;17.70;34.40;19.50;100175.00;;;;5588585;25;2179;-38
2024/04/11 10:47:13;;;;;;;;;;;17.70;34.40;19.50;100167.00;;;;5595202;25;2384;-38
2024/04/11 10:49:41;;;;;;;;;;;17.70;34.30;19.50;100174.00;;;;5595506;25;2010;-38
2024/04/11 10:52:12;;;;;;;;;;;17.70;34.10;19.50;100171.00;;;;5594536;25;2202;-38
2024/04/11 10:54:40;;;;;;;;;;;17.70;34.00;19.50;100167.00;;;;5596915;25;2291;-37
2024/04/11 10:57:13;;;;;;;;;;;17.80;34.00;19.60;100167.00;;;;5580201;25;2209;-38
2024/04/11 10:59:50;;;;;;;;;;;17.80;33.90;19.60;100173.00;;;;5595111;25;2067;-38
2024/04/11 11:02:23;;;;;;;;;;;17.80;34.30;19.60;100168.00;;;;5595249;25;1464;-37
2024/04/11 11:04:54;;;;;;;;;;;17.80;34.70;19.60;100172.00;;;;5592945;25;2315;-37
2024/04/11 11:07:31;;;;;;;;;;;17.80;34.80;19.60;100172.00;;;;5591870;25;2359;-36
2024/04/11 11:09:59;;;;;;;;;;;17.80;35.10;19.60;100173.00;;;;5594069;25;2332;-37
2024/04/11 11:12:29;;;;;;;;;;;17.70;35.30;19.50;100176.00;;;;5592789;25;2106;-38
2024/04/11 11:14:59;;;;;;;;;;;17.70;35.60;19.60;100171.00;;;;5594618;25;2382;-38
2024/04/11 11:17:31;;;;;;;;;;;17.70;35.40;19.60;100175.00;;;;5595115;25;2240;-37
2024/04/11 11:19:58;;;;;;;;;;;17.70;35.10;19.50;100169.00;;;;5594592;25;2251;-37
2024/04/11 11:22:33;;;;;;;;;;;17.70;34.90;19.50;100156.00;;;;5595019;25;2344;-37
2024/04/11 11:25:02;;;;;;;;;;;17.70;34.80;19.50;100154.00;;;;5594406;25;2488;-37
2024/04/11 11:27:32;;;;;;;;;;;17.70;34.60;19.50;100155.00;;;;5594999;25;2334;-37
2024/04/11 11:30:06;;;;;;;;;;;17.80;34.60;19.60;100147.00;;;;5594447;25;2334;-36
2024/04/11 11:32:37;;;;;;;;;;;17.80;34.40;19.60;100153.00;;;;5595214;25;2095;-37
2024/04/11 11:35:05;;;;;;;;;;;17.80;34.30;19.60;100138.00;;;;5594506;25;2153;-37
2024/04/11 11:37:38;;;;;;;;;;;17.80;34.40;19.60;100135.00;;;;5593819;25;2320;-37
2024/04/11 11:40:37;;;;;;;;;;;17.80;34.80;19.60;100137.00;;;;5594589;25;2160;-37
2024/04/11 11:42:58;;;;;;;;;;;17.80;35.10;19.60;100134.00;;;;5594894;25;2307;-38
2024/04/11 11:45:28;;;;;;;;;;;17.80;35.00;19.60;100137.00;;;;5595638;25;2030;-37
2024/04/11 11:48:12;;;;;;;;;;;17.80;34.80;19.60;100128.00;;;;5587613;25;1980;-37
2024/04/11 11:50:41;;;;;;;;;;;17.80;34.70;19.60;100111.00;;;;5590060;25;2166;-38
2024/04/11 11:55:58;;;;;;;;;;;17.80;34.40;19.60;100115.00;;;;5582634;25;2194;-37
2024/04/11 11:58:34;;;;;;;;;;;17.80;34.30;19.70;100120.00;;;;5585177;25;2215;-37
2024/04/11 12:01:19;;;;;;;;;;;17.80;34.10;19.70;100113.00;;;;5585293;25;2322;-38
2024/04/11 12:03:55;;;;;;;;;;;17.90;34.10;19.70;100102.00;;;;5590792;25;2204;-37
2024/04/11 12:06:33;;;;;;;;;;;17.90;34.40;19.70;100107.00;;;;5595811;25;2408;-38
2024/04/11 12:09:02;;;;;;;;;;;17.90;34.70;19.70;100101.00;;;;5583032;25;3103;-37
2024/04/11 12:11:34;;;;;;;;;;;17.90;34.90;19.70;100099.00;;;;5583518;25;2245;-37
2024/04/11 12:14:02;;;;;;;;;;;17.80;34.80;19.70;100090.00;;;;5583173;25;1820;-37
2024/04/11 12:16:38;;;;;;;;;;;17.80;34.60;19.70;100101.00;;;;5586224;25;2086;-37
2024/04/11 12:19:08;;;;;;;;;;;17.80;34.40;19.70;100110.00;;;;5586322;25;2324;-36